Hallandale, Florida
Current Conditions -  °F | °C
As of 10:11 PM on Saturday 22 Nov 2014 (Local Time) from KHWO Reporting Station
Overcast Overcast  
Wind Chill: 77°   Ceiling: 1900
Heat Index: 79°   Visibility: 10mi
Dew Point: 71°   Wind: 18mph
Humidity: 82%   Direction: 110°ESE
Pressure: 30.1"   Gusts: 23mph
Location:  25.98°N, 80.15°W
Report Text: KHWO 230311Z AUTO 11016G20KT 10SM BKN019 BKN031 OVC042 25/22 A3010 RMK AO2 T02500217
Loading
Personal Weather Stations






























Interactive Weather Map New forecast layout! Learn more

10-Day Weather Forecast

Advertisements
Track Severe Weather on mobile